Time;durP1;ratioP1;P1;durP2;ratioP2;P2;SDS_P1;SDS_P2;PMS_P1;PMS_P2;Temp;Humidity;BMP_temperature;BMP_pressure;BME280_temperature;BME280_humidity;BME280_pressure;Samples;Min_cycle;Max_cycle;Signal;HPM_P1;HPM_P2
2021/06/29 00:01:05;;;;;;;1.63;0.80;;;23.20;34.10;;;;;;20841802;28;20052;-75
2021/06/29 00:11:06;;;;;;;2.53;0.90;;;23.00;34.40;;;;;;20841419;28;20053;-58
2021/06/29 00:21:08;;;;;;;1.80;0.90;;;23.00;34.50;;;;;;20839780;28;20508;-57
2021/06/29 00:31:10;;;;;;;1.90;1.00;;;22.90;34.60;;;;;;20838541;28;20260;-57
2021/06/29 00:41:12;;;;;;;2.17;0.90;;;22.90;34.90;;;;;;20838027;28;20053;-58
2021/06/29 00:51:16;;;;;;;2.67;0.93;;;22.70;35.00;;;;;;20838229;28;20049;-58
2021/06/29 01:01:17;;;;;;;0.85;0.65;;;22.60;35.20;;;;;;20837808;28;20482;-75
2021/06/29 01:11:19;;;;;;;1.70;0.80;;;22.60;35.30;;;;;;20818503;28;20053;-75
2021/06/29 01:21:22;;;;;;;0.70;0.50;;;22.40;35.70;;;;;;20835810;28;20049;-58
2021/06/29 01:31:24;;;;;;;1.30;0.60;;;22.20;36.40;;;;;;20837953;28;20478;-58
2021/06/29 01:41:27;;;;;;;2.08;0.40;;;22.10;37.00;;;;;;20837995;28;20046;-58
2021/06/29 01:51:41;;;;;;;3.20;0.60;;;22.00;37.70;;;;;;20831871;28;20387;-59
2021/06/29 02:01:43;;;;;;;3.05;0.52;;;21.70;38.10;;;;;;20831406;28;20057;-60
2021/06/29 02:11:51;;;;;;;1.15;0.50;;;21.70;38.60;;;;;;20831561;28;20118;-69
2021/06/29 02:21:56;;;;;;;1.08;0.50;;;21.60;39.00;;;;;;20832754;28;20137;-76
2021/06/29 02:32:08;;;;;;;1.53;0.50;;;21.50;39.40;;;;;;20832706;28;20404;-77
2021/06/29 02:42:13;;;;;;;3.42;1.48;;;21.30;40.10;;;;;;20832227;28;20136;-61
2021/06/29 02:52:35;;;;;;;1.10;0.50;;;21.20;40.50;;;;;;20830884;28;20104;-60
2021/06/29 03:02:46;;;;;;;1.73;0.50;;;21.20;40.90;;;;;;20830272;28;20046;-64
2021/06/29 03:13:07;;;;;;;4.60;0.50;;;21.00;41.00;;;;;;20828566;28;20140;-58
2021/06/29 03:23:13;;;;;;;1.33;0.80;;;20.90;41.20;;;;;;20845179;28;20494;-72
2021/06/29 03:33:17;;;;;;;1.95;0.57;;;20.80;40.90;;;;;;20847707;28;20049;-76
2021/06/29 03:43:22;;;;;;;1.50;0.70;;;20.80;40.70;;;;;;20844324;28;20049;-76
2021/06/29 03:53:28;;;;;;;2.38;0.70;;;20.90;41.70;;;;;;20842661;28;20049;-59
2021/06/29 04:03:32;;;;;;;3.35;0.95;;;20.70;42.20;;;;;;20840144;28;20068;-57
2021/06/29 04:13:37;;;;;;;3.35;0.88;;;20.60;42.40;;;;;;20839423;28;20107;-64
2021/06/29 04:23:44;;;;;;;2.08;0.80;;;20.40;42.80;;;;;;20838532;28;20509;-59
2021/06/29 04:34:09;;;;;;;3.35;1.00;;;20.30;43.20;;;;;;20837482;28;20480;-63
2021/06/29 04:44:31;;;;;;;2.88;1.17;;;20.10;43.80;;;;;;20837277;28;20041;-58
2021/06/29 04:54:52;;;;;;;4.20;1.27;;;19.90;44.20;;;;;;20836751;28;20508;-74
2021/06/29 05:05:11;;;;;;;5.28;1.33;;;19.90;44.40;;;;;;20838352;28;20084;-77
2021/06/29 05:15:21;;;;;;;2.83;1.10;;;19.90;44.70;;;;;;20838567;28;20089;-76
2021/06/29 05:25:24;;;;;;;;;;;19.90;44.90;;;;;;20838530;28;20152;-75
2021/06/29 05:35:30;;;;;;;6.30;1.55;;;19.70;45.10;;;;;;20843147;28;20015;-75
2021/06/29 05:45:46;;;;;;;5.95;2.22;;;19.70;45.90;;;;;;20840525;28;20512;-64
2021/06/29 05:56:10;;;;;;;4.05;1.30;;;19.80;46.00;;;;;;20833962;28;20567;-58
2021/06/29 06:06:31;;;;;;;3.80;1.60;;;19.90;46.00;;;;;;20830856;28;20049;-56
2021/06/29 06:16:53;;;;;;;5.70;1.77;;;19.80;46.30;;;;;;20833837;28;20056;-77
2021/06/29 06:27:15;;;;;;;3.58;1.63;;;19.90;46.80;;;;;;20832052;28;20053;-76
2021/06/29 06:37:31;;;;;;;4.85;1.70;;;20.10;46.70;;;;;;20830283;28;20053;-77
2021/06/29 06:47:44;;;;;;;6.00;1.33;;;20.30;46.20;;;;;;20813347;28;20445;-74
2021/06/29 06:57:54;;;;;;;4.70;1.30;;;20.50;45.80;;;;;;20843234;28;20053;-57
2021/06/29 07:08:01;;;;;;;5.40;1.40;;;21.20;44.60;;;;;;20846143;28;20398;-61
2021/06/29 07:18:05;;;;;;;3.08;1.23;;;22.00;42.80;;;;;;20847033;28;20045;-59
2021/06/29 07:28:09;;;;;;;3.15;1.10;;;22.90;40.30;;;;;;20845595;28;20371;-74
2021/06/29 07:38:13;;;;;;;2.63;0.60;;;23.60;38.80;;;;;;20851087;28;20060;-58
2021/06/29 07:48:19;;;;;;;2.25;0.70;;;24.30;37.20;;;;;;20843702;28;20053;-59
2021/06/29 07:58:25;;;;;;;1.05;0.60;;;24.80;36.20;;;;;;20843867;28;20080;-59
2021/06/29 08:08:31;;;;;;;3.22;0.80;;;25.20;35.30;;;;;;20843122;28;20425;-61
2021/06/29 08:18:40;;;;;;;0.90;0.60;;;25.40;35.00;;;;;;20840068;28;20505;-58
2021/06/29 08:28:47;;;;;;;1.33;0.70;;;25.60;35.40;;;;;;20838582;28;20060;-61
2021/06/29 08:39:04;;;;;;;1.23;0.60;;;25.70;35.60;;;;;;20838456;28;20129;-58
2021/06/29 08:49:08;;;;;;;1.67;0.63;;;26.30;33.80;;;;;;20855455;28;20080;-76
2021/06/29 08:59:14;;;;;;;3.78;0.70;;;26.50;33.30;;;;;;20868039;28;20057;-58
2021/06/29 09:09:24;;;;;;;2.05;0.70;;;26.60;32.80;;;;;;20841243;28;20045;-76
2021/06/29 09:19:37;;;;;;;2.47;0.60;;;26.80;32.40;;;;;;20860157;28;20045;-61
2021/06/29 09:29:42;;;;;;;2.30;0.53;;;26.90;32.30;;;;;;20861197;28;20144;-80
2021/06/29 09:40:08;;;;;;;1.30;1.02;;;27.30;31.60;;;;;;20826692;28;20088;-80
2021/06/29 09:50:45;;;;;;;2.30;0.90;;;27.70;30.80;;;;;;20844587;28;20146;-65
2021/06/29 10:00:57;;;;;;;2.50;1.30;;;27.80;30.10;;;;;;20835290;28;20053;-76
2021/06/29 10:11:20;;;;;;;4.65;1.05;;;28.00;29.40;;;;;;20833887;28;20053;-65
2021/06/29 10:21:23;;;;;;;1.77;0.70;;;28.20;28.50;;;;;;20831181;28;20223;-60
2021/06/29 10:31:30;;;;;;;2.90;1.17;;;28.30;28.70;;;;;;20828906;28;20498;-62
2021/06/29 10:41:38;;;;;;;1.35;0.73;;;28.20;28.80;;;;;;20831489;28;20049;-64
2021/06/29 10:51:40;;;;;;;2.22;0.77;;;28.10;29.10;;;;;;20830641;28;20060;-68
2021/06/29 11:01:54;;;;;;;1.45;0.70;;;28.10;29.00;;;;;;20828486;28;20045;-68
2021/06/29 11:12:20;;;;;;;1.55;1.00;;;28.20;28.60;;;;;;20831625;28;20395;-70
2021/06/29 11:22:51;;;;;;;2.22;0.85;;;28.20;28.40;;;;;;20829356;28;20069;-55
2021/06/29 11:32:52;;;;;;;11.23;2.33;;;28.00;29.30;;;;;;20829115;28;20057;-70
2021/06/29 11:43:12;;;;;;;6.18;1.30;;;27.80;29.40;;;;;;20844811;28;20049;-71
2021/06/29 11:53:23;;;;;;;3.90;1.23;;;28.00;28.80;;;;;;20827848;28;20049;-60
2021/06/29 12:03:25;;;;;;;1.83;0.80;;;27.90;28.30;;;;;;20840993;28;20120;-61
2021/06/29 12:13:28;;;;;;;2.05;0.98;;;27.90;28.30;;;;;;20840344;28;20053;-60
2021/06/29 12:23:32;;;;;;;1.63;0.85;;;28.10;27.80;;;;;;20839193;28;20529;-64
2021/06/29 12:33:37;;;;;;;3.95;1.95;;;28.30;27.40;;;;;;20838431;28;20490;-59
2021/06/29 12:43:44;;;;;;;3.08;1.02;;;28.50;27.80;;;;;;20838287;28;20041;-67
2021/06/29 12:53:54;;;;;;;3.60;0.98;;;28.40;27.00;;;;;;20836055;28;20053;-61
2021/06/29 13:03:59;;;;;;;2.43;1.17;;;28.40;27.00;;;;;;20819660;28;20053;-70
2021/06/29 13:14:04;;;;;;;3.10;1.40;;;28.50;25.90;;;;;;20836656;28;20053;-65
2021/06/29 13:24:09;;;;;;;5.45;1.20;;;28.90;25.20;;;;;;20835519;28;20449;-70
2021/06/29 13:34:25;;;;;;;5.40;0.93;;;29.00;25.20;;;;;;20834670;28;20525;-72
2021/06/29 13:44:30;;;;;;;271.67;32.05;;;29.10;25.10;;;;;;20846050;28;20052;-70
2021/06/29 13:54:32;;;;;;;2.85;0.80;;;29.10;25.30;;;;;;20834703;28;20061;-66
2021/06/29 14:04:53;;;;;;;1.85;0.90;;;29.40;24.30;;;;;;20830556;28;20046;-69
2021/06/29 14:15:10;;;;;;;1.63;1.00;;;29.60;24.10;;;;;;20831690;28;20083;-61
2021/06/29 14:25:12;;;;;;;10.85;3.53;;;29.50;24.00;;;;;;20834052;28;20061;-70
2021/06/29 14:35:14;;;;;;;1.80;0.80;;;29.30;24.40;;;;;;20832921;28;20152;-61
2021/06/29 14:45:17;;;;;;;15.88;14.27;;;29.60;23.70;;;;;;20830441;28;20054;-65
2021/06/29 14:55:20;;;;;;;4.60;1.33;;;29.50;23.10;;;;;;20829888;28;20060;-67
2021/06/29 15:05:22;;;;;;;2.17;1.33;;;29.50;23.20;;;;;;20829025;28;20046;-72
2021/06/29 15:15:25;;;;;;;6.13;3.35;;;29.60;23.10;;;;;;20837278;28;20053;-61
2021/06/29 15:25:27;;;;;;;4.72;1.88;;;29.80;22.20;;;;;;20843429;28;20502;-63
2021/06/29 15:35:29;;;;;;;3.17;0.80;;;29.80;22.80;;;;;;20843132;28;20533;-61
2021/06/29 15:45:31;;;;;;;7.80;1.48;;;29.80;22.50;;;;;;20842377;28;20050;-65
2021/06/29 15:55:33;;;;;;;1.65;0.60;;;30.10;23.00;;;;;;20841791;28;20060;-63
2021/06/29 16:05:35;;;;;;;3.33;0.80;;;30.00;22.90;;;;;;20840617;28;20080;-65
2021/06/29 16:15:39;;;;;;;2.53;1.10;;;30.10;22.90;;;;;;20839664;28;20498;-68
2021/06/29 16:25:40;;;;;;;4.03;1.50;;;30.30;22.60;;;;;;20837868;28;20061;-59
2021/06/29 16:35:42;;;;;;;1.90;1.27;;;30.40;22.20;;;;;;20837761;28;20070;-61
2021/06/29 16:45:45;;;;;;;2.85;1.27;;;30.30;23.00;;;;;;20837707;28;20095;-59
2021/06/29 16:55:47;;;;;;;2.83;0.88;;;30.20;23.00;;;;;;20836598;28;20068;-71
2021/06/29 17:05:50;;;;;;;4.60;2.05;;;30.40;22.40;;;;;;20836046;28;20099;-60
2021/06/29 17:15:52;;;;;;;1.80;0.73;;;30.30;22.40;;;;;;20835744;28;20420;-61
2021/06/29 17:25:54;;;;;;;3.42;2.22;;;30.40;22.20;;;;;;20834870;28;20130;-66
2021/06/29 17:35:57;;;;;;;2.53;0.80;;;30.30;22.00;;;;;;20833659;28;20107;-73
2021/06/29 17:46:00;;;;;;;2.63;0.98;;;30.40;21.70;;;;;;20815611;28;20060;-63
2021/06/29 17:56:03;;;;;;;5.10;1.70;;;30.30;21.70;;;;;;20831883;28;20482;-61
2021/06/29 18:06:06;;;;;;;3.80;1.30;;;30.10;22.30;;;;;;20830383;28;20046;-62
2021/06/29 18:16:08;;;;;;;2.97;1.60;;;30.10;22.20;;;;;;20830063;28;20065;-67
2021/06/29 18:26:09;;;;;;;2.30;1.45;;;30.10;21.80;;;;;;20829636;28;20049;-71
2021/06/29 18:36:11;;;;;;;1.98;0.93;;;30.00;22.00;;;;;;20829638;28;20046;-70
2021/06/29 18:46:13;;;;;;;8.90;4.80;;;29.90;22.00;;;;;;20830978;28;20053;-70
2021/06/29 18:56:18;;;;;;;2.97;1.50;;;29.80;22.20;;;;;;20845951;28;20049;-60
2021/06/29 19:06:21;;;;;;;2.92;1.63;;;29.70;22.70;;;;;;20844802;28;20065;-60
2021/06/29 19:16:23;;;;;;;3.83;1.30;;;29.60;23.00;;;;;;20844623;28;20391;-60
2021/06/29 19:26:27;;;;;;;5.57;2.75;;;29.50;22.70;;;;;;20843554;28;20140;-59
2021/06/29 19:36:29;;;;;;;4.85;2.70;;;29.20;23.50;;;;;;20843036;28;20053;-73
2021/06/29 19:46:31;;;;;;;6.68;2.22;;;29.00;23.70;;;;;;20841973;28;20434;-61
2021/06/29 19:56:33;;;;;;;6.53;2.40;;;28.70;24.20;;;;;;20840901;28;20056;-72
2021/06/29 20:06:35;;;;;;;5.03;3.13;;;28.50;24.20;;;;;;20839913;28;20057;-71
2021/06/29 20:16:38;;;;;;;4.28;2.88;;;28.30;24.70;;;;;;20840199;28;20065;-61
2021/06/29 20:26:40;;;;;;;7.60;4.15;;;28.10;25.10;;;;;;20838732;28;20052;-60
2021/06/29 20:36:42;;;;;;;6.95;4.13;;;27.90;25.50;;;;;;20839105;28;20083;-60
2021/06/29 20:46:46;;;;;;;8.50;4.93;;;27.70;25.90;;;;;;20838218;28;20498;-62
2021/06/29 20:56:47;;;;;;;8.35;4.38;;;27.60;26.10;;;;;;20838702;28;20045;-64
2021/06/29 21:06:49;;;;;;;4.20;2.60;;;27.40;26.50;;;;;;20839197;28;20480;-73
2021/06/29 21:16:53;;;;;;;3.88;2.72;;;27.30;27.50;;;;;;20839068;28;20053;-70
2021/06/29 21:26:56;;;;;;;6.50;2.80;;;27.30;28.20;;;;;;20836374;28;20581;-60
2021/06/29 21:36:59;;;;;;;3.58;2.25;;;27.20;29.50;;;;;;20834372;28;20197;-60
2021/06/29 21:47:01;;;;;;;3.78;2.28;;;27.20;30.60;;;;;;20833216;28;20056;-65
2021/06/29 21:57:04;;;;;;;6.72;3.42;;;27.00;31.00;;;;;;20832241;28;20041;-61
2021/06/29 22:07:06;;;;;;;3.40;2.40;;;26.80;31.60;;;;;;20832475;28;20478;-61
2021/06/29 22:17:09;;;;;;;5.57;2.78;;;26.60;32.20;;;;;;20832020;28;20057;-65
2021/06/29 22:27:11;;;;;;;5.60;3.30;;;26.40;32.60;;;;;;20830401;28;20057;-64
2021/06/29 22:37:16;;;;;;;5.78;2.50;;;26.30;32.90;;;;;;20833072;28;20045;-73
2021/06/29 22:47:17;;;;;;;4.80;2.10;;;26.10;33.30;;;;;;20830335;28;20060;-64
2021/06/29 22:57:19;;;;;;;7.47;5.90;;;26.10;33.70;;;;;;20831282;28;20128;-60
2021/06/29 23:07:21;;;;;;;5.88;3.70;;;26.00;34.30;;;;;;20830614;28;20482;-58
2021/06/29 23:17:22;;;;;;;4.63;3.00;;;25.80;34.50;;;;;;20829055;28;20092;-62
2021/06/29 23:27:25;;;;;;;3.92;2.35;;;25.80;34.00;;;;;;20828844;28;20052;-59
2021/06/29 23:37:26;;;;;;;3.25;1.10;;;25.60;33.20;;;;;;20838252;28;20065;-67
2021/06/29 23:47:28;;;;;;;1.67;1.10;;;25.60;32.10;;;;;;20844115;28;20115;-72
2021/06/29 23:57:30;;;;;;;4.40;1.20;;;25.30;33.30;;;;;;20844310;28;20048;-62
